sensor_id;sensor_type;location;lat;lon;timestamp;temperature;humidity
10133;DHT22;5106;50.926;7.080;2024-03-17T00:01:38;5.90;96.50
10133;DHT22;5106;50.926;7.080;2024-03-17T00:04:06;5.90;96.50
10133;DHT22;5106;50.926;7.080;2024-03-17T00:06:32;5.90;96.50
10133;DHT22;5106;50.926;7.080;2024-03-17T00:08:58;5.90;96.50
10133;DHT22;5106;50.926;7.080;2024-03-17T00:11:24;5.90;96.50
10133;DHT22;5106;50.926;7.080;2024-03-17T00:13:50;5.90;96.50
10133;DHT22;5106;50.926;7.080;2024-03-17T00:16:16;5.90;96.50
10133;DHT22;5106;50.926;7.080;2024-03-17T00:18:45;5.90;96.50
10133;DHT22;5106;50.926;7.080;2024-03-17T00:21:14;5.90;96.50
10133;DHT22;5106;50.926;7.080;2024-03-17T00:23:39;5.90;96.50
10133;DHT22;5106;50.926;7.080;2024-03-17T00:26:05;5.80;96.50
10133;DHT22;5106;50.926;7.080;2024-03-17T00:28:30;5.80;96.50
10133;DHT22;5106;50.926;7.080;2024-03-17T00:30:56;5.80;96.50
10133;DHT22;5106;50.926;7.080;2024-03-17T00:33:21;5.70;96.50
10133;DHT22;5106;50.926;7.080;2024-03-17T00:35:47;5.70;96.50
10133;DHT22;5106;50.926;7.080;2024-03-17T00:38:13;5.70;96.50
10133;DHT22;5106;50.926;7.080;2024-03-17T00:40:39;5.70;96.50
10133;DHT22;5106;50.926;7.080;2024-03-17T00:43:07;5.70;96.50
10133;DHT22;5106;50.926;7.080;2024-03-17T00:45:33;5.70;96.50
10133;DHT22;5106;50.926;7.080;2024-03-17T00:47:59;5.70;96.50
10133;DHT22;5106;50.926;7.080;2024-03-17T00:50:24;5.60;96.50
10133;DHT22;5106;50.926;7.080;2024-03-17T00:52:50;5.60;96.50
10133;DHT22;5106;50.926;7.080;2024-03-17T00:55:15;5.60;96.50
10133;DHT22;5106;50.926;7.080;2024-03-17T00:57:41;5.60;96.50
10133;DHT22;5106;50.926;7.080;2024-03-17T01:00:07;5.60;96.50
10133;DHT22;5106;50.926;7.080;2024-03-17T01:02:37;5.50;96.50
10133;DHT22;5106;50.926;7.080;2024-03-17T01:05:03;5.50;96.50
10133;DHT22;5106;50.926;7.080;2024-03-17T01:07:33;5.50;96.50
10133;DHT22;5106;50.926;7.080;2024-03-17T01:09:58;5.50;96.50
10133;DHT22;5106;50.926;7.080;2024-03-17T01:12:25;5.40;96.50
10133;DHT22;5106;50.926;7.080;2024-03-17T01:14:51;5.40;96.50
10133;DHT22;5106;50.926;7.080;2024-03-17T01:17:17;5.50;96.50
10133;DHT22;5106;50.926;7.080;2024-03-17T01:19:44;5.50;96.50
10133;DHT22;5106;50.926;7.080;2024-03-17T01:22:10;5.40;96.50
10133;DHT22;5106;50.926;7.080;2024-03-17T01:24:35;5.40;96.50
10133;DHT22;5106;50.926;7.080;2024-03-17T01:27:02;5.40;96.50
10133;DHT22;5106;50.926;7.080;2024-03-17T01:29:28;5.30;96.50
10133;DHT22;5106;50.926;7.080;2024-03-17T01:31:54;5.30;96.50
10133;DHT22;5106;50.926;7.080;2024-03-17T01:34:22;5.40;96.50
10133;DHT22;5106;50.926;7.080;2024-03-17T01:36:48;5.40;96.50
10133;DHT22;5106;50.926;7.080;2024-03-17T01:39:14;5.40;96.50
10133;DHT22;5106;50.926;7.080;2024-03-17T01:41:41;5.40;96.50
10133;DHT22;5106;50.926;7.080;2024-03-17T01:44:07;5.30;96.50
10133;DHT22;5106;50.926;7.080;2024-03-17T01:46:33;5.30;96.50
10133;DHT22;5106;50.926;7.080;2024-03-17T01:48:59;5.30;96.50
10133;DHT22;5106;50.926;7.080;2024-03-17T01:51:24;5.30;96.50
10133;DHT22;5106;50.926;7.080;2024-03-17T01:53:50;5.20;96.50
10133;DHT22;5106;50.926;7.080;2024-03-17T01:56:16;5.20;96.50
10133;DHT22;5106;50.926;7.080;2024-03-17T01:58:45;5.20;96.50
10133;DHT22;5106;50.926;7.080;2024-03-17T02:01:12;5.10;96.50
10133;DHT22;5106;50.926;7.080;2024-03-17T02:03:40;5.10;96.50
10133;DHT22;5106;50.926;7.080;2024-03-17T02:06:07;5.10;96.50
10133;DHT22;5106;50.926;7.080;2024-03-17T02:08:48;5.10;96.50
10133;DHT22;5106;50.926;7.080;2024-03-17T02:11:31;5.00;96.50
10133;DHT22;5106;50.926;7.080;2024-03-17T02:13:58;5.00;96.50
10133;DHT22;5106;50.926;7.080;2024-03-17T02:16:24;5.00;96.50
10133;DHT22;5106;50.926;7.080;2024-03-17T02:18:57;5.00;96.50
10133;DHT22;5106;50.926;7.080;2024-03-17T02:21:26;5.00;96.50
10133;DHT22;5106;50.926;7.080;2024-03-17T02:23:53;5.00;96.50
10133;DHT22;5106;50.926;7.080;2024-03-17T02:26:19;5.00;96.50
10133;DHT22;5106;50.926;7.080;2024-03-17T02:28:46;4.90;96.50
10133;DHT22;5106;50.926;7.080;2024-03-17T02:31:13;4.90;96.50
10133;DHT22;5106;50.926;7.080;2024-03-17T02:33:40;4.90;96.50
10133;DHT22;5106;50.926;7.080;2024-03-17T02:36:06;4.80;96.50
10133;DHT22;5106;50.926;7.080;2024-03-17T02:38:33;4.80;96.50
10133;DHT22;5106;50.926;7.080;2024-03-17T02:41:17;4.80;96.50
10133;DHT22;5106;50.926;7.080;2024-03-17T02:43:44;4.70;96.50
10133;DHT22;5106;50.926;7.080;2024-03-17T02:46:17;4.70;96.50
10133;DHT22;5106;50.926;7.080;2024-03-17T02:48:45;4.70;96.50
10133;DHT22;5106;50.926;7.080;2024-03-17T02:51:16;4.60;96.50
10133;DHT22;5106;50.926;7.080;2024-03-17T02:53:43;4.60;96.50
10133;DHT22;5106;50.926;7.080;2024-03-17T02:56:10;4.60;96.50
10133;DHT22;5106;50.926;7.080;2024-03-17T02:58:37;4.60;96.50
10133;DHT22;5106;50.926;7.080;2024-03-17T03:01:04;4.60;96.50
10133;DHT22;5106;50.926;7.080;2024-03-17T03:03:31;4.60;96.50
10133;DHT22;5106;50.926;7.080;2024-03-17T03:05:56;4.60;96.50
10133;DHT22;5106;50.926;7.080;2024-03-17T03:08:22;4.60;96.50
10133;DHT22;5106;50.926;7.080;2024-03-17T03:10:51;4.60;96.50
10133;DHT22;5106;50.926;7.080;2024-03-17T03:13:16;4.50;96.50
10133;DHT22;5106;50.926;7.080;2024-03-17T03:15:43;4.50;96.50
10133;DHT22;5106;50.926;7.080;2024-03-17T03:18:09;4.50;96.50
10133;DHT22;5106;50.926;7.080;2024-03-17T03:20:34;4.50;96.50
10133;DHT22;5106;50.926;7.080;2024-03-17T03:23:01;4.40;96.50
10133;DHT22;5106;50.926;7.080;2024-03-17T03:25:28;4.40;96.50
10133;DHT22;5106;50.926;7.080;2024-03-17T03:27:53;4.40;96.50
10133;DHT22;5106;50.926;7.080;2024-03-17T03:30:21;4.40;96.50
10133;DHT22;5106;50.926;7.080;2024-03-17T03:32:47;4.40;96.50
10133;DHT22;5106;50.926;7.080;2024-03-17T03:35:13;4.30;96.50
10133;DHT22;5106;50.926;7.080;2024-03-17T03:37:40;4.30;96.50
10133;DHT22;5106;50.926;7.080;2024-03-17T03:40:07;4.30;96.50
10133;DHT22;5106;50.926;7.080;2024-03-17T03:42:43;4.30;96.50
10133;DHT22;5106;50.926;7.080;2024-03-17T03:45:10;4.30;96.50
10133;DHT22;5106;50.926;7.080;2024-03-17T03:47:39;4.20;96.50
10133;DHT22;5106;50.926;7.080;2024-03-17T03:50:07;4.20;96.50
10133;DHT22;5106;50.926;7.080;2024-03-17T03:52:35;4.20;96.50
10133;DHT22;5106;50.926;7.080;2024-03-17T03:55:01;4.20;96.50
10133;DHT22;5106;50.926;7.080;2024-03-17T03:57:26;4.10;96.50
10133;DHT22;5106;50.926;7.080;2024-03-17T03:59:55;4.10;96.50
10133;DHT22;5106;50.926;7.080;2024-03-17T04:02:21;4.10;96.50
10133;DHT22;5106;50.926;7.080;2024-03-17T04:04:47;4.20;96.50
10133;DHT22;5106;50.926;7.080;2024-03-17T04:07:13;4.20;96.50
10133;DHT22;5106;50.926;7.080;2024-03-17T04:09:39;4.20;96.50
10133;DHT22;5106;50.926;7.080;2024-03-17T04:12:04;4.20;96.50
10133;DHT22;5106;50.926;7.080;2024-03-17T04:14:30;4.20;96.50
10133;DHT22;5106;50.926;7.080;2024-03-17T04:16:56;4.20;96.50
10133;DHT22;5106;50.926;7.080;2024-03-17T04:19:22;4.20;96.50
10133;DHT22;5106;50.926;7.080;2024-03-17T04:21:47;4.20;96.50
10133;DHT22;5106;50.926;7.080;2024-03-17T04:24:13;4.20;96.50
10133;DHT22;5106;50.926;7.080;2024-03-17T04:26:39;4.10;96.50
10133;DHT22;5106;50.926;7.080;2024-03-17T04:29:04;4.10;96.50
10133;DHT22;5106;50.926;7.080;2024-03-17T04:31:31;4.00;96.50
10133;DHT22;5106;50.926;7.080;2024-03-17T04:33:57;4.00;96.50
10133;DHT22;5106;50.926;7.080;2024-03-17T04:36:22;4.00;96.50
10133;DHT22;5106;50.926;7.080;2024-03-17T04:38:48;4.00;96.50
10133;DHT22;5106;50.926;7.080;2024-03-17T04:41:17;4.00;96.50
10133;DHT22;5106;50.926;7.080;2024-03-17T04:43:44;4.00;96.50
10133;DHT22;5106;50.926;7.080;2024-03-17T04:46:09;4.00;96.50
10133;DHT22;5106;50.926;7.080;2024-03-17T04:48:37;4.00;96.50
10133;DHT22;5106;50.926;7.080;2024-03-17T04:51:03;3.90;96.50
10133;DHT22;5106;50.926;7.080;2024-03-17T04:53:29;4.00;96.50
10133;DHT22;5106;50.926;7.080;2024-03-17T04:56:05;4.00;96.50
10133;DHT22;5106;50.926;7.080;2024-03-17T04:58:31;4.00;96.50
10133;DHT22;5106;50.926;7.080;2024-03-17T05:00:57;4.00;96.50
10133;DHT22;5106;50.926;7.080;2024-03-17T05:03:23;4.00;96.50
10133;DHT22;5106;50.926;7.080;2024-03-17T05:05:48;4.00;96.50
10133;DHT22;5106;50.926;7.080;2024-03-17T05:08:26;3.90;96.50
10133;DHT22;5106;50.926;7.080;2024-03-17T05:10:56;3.80;96.50
10133;DHT22;5106;50.926;7.080;2024-03-17T05:13:22;3.80;96.50
10133;DHT22;5106;50.926;7.080;2024-03-17T05:15:48;3.80;96.50
10133;DHT22;5106;50.926;7.080;2024-03-17T05:18:13;3.80;96.50
10133;DHT22;5106;50.926;7.080;2024-03-17T05:20:39;3.90;96.50
10133;DHT22;5106;50.926;7.080;2024-03-17T05:23:04;3.90;96.50
10133;DHT22;5106;50.926;7.080;2024-03-17T05:25:30;3.90;96.50
10133;DHT22;5106;50.926;7.080;2024-03-17T05:27:58;3.90;96.50
10133;DHT22;5106;50.926;7.080;2024-03-17T05:30:23;4.00;96.50
10133;DHT22;5106;50.926;7.080;2024-03-17T05:32:49;4.00;96.50
10133;DHT22;5106;50.926;7.080;2024-03-17T05:35:15;4.00;96.50
10133;DHT22;5106;50.926;7.080;2024-03-17T05:37:40;4.00;96.50
10133;DHT22;5106;50.926;7.080;2024-03-17T05:40:06;4.00;96.50
10133;DHT22;5106;50.926;7.080;2024-03-17T05:42:32;4.00;96.50
10133;DHT22;5106;50.926;7.080;2024-03-17T05:44:57;4.00;96.50
10133;DHT22;5106;50.926;7.080;2024-03-17T05:47:23;4.00;96.50
10133;DHT22;5106;50.926;7.080;2024-03-17T05:49:49;4.00;96.50
10133;DHT22;5106;50.926;7.080;2024-03-17T05:52:14;4.00;96.50
10133;DHT22;5106;50.926;7.080;2024-03-17T05:54:40;4.00;96.50
10133;DHT22;5106;50.926;7.080;2024-03-17T05:57:05;4.00;96.50
10133;DHT22;5106;50.926;7.080;2024-03-17T05:59:32;4.10;96.50
10133;DHT22;5106;50.926;7.080;2024-03-17T06:01:58;4.00;96.50
10133;DHT22;5106;50.926;7.080;2024-03-17T06:04:23;4.00;96.50
10133;DHT22;5106;50.926;7.080;2024-03-17T06:06:49;4.00;96.50
10133;DHT22;5106;50.926;7.080;2024-03-17T06:09:15;4.00;96.50
10133;DHT22;5106;50.926;7.080;2024-03-17T06:11:43;4.10;96.50
10133;DHT22;5106;50.926;7.080;2024-03-17T06:14:09;4.10;96.50
10133;DHT22;5106;50.926;7.080;2024-03-17T06:16:37;4.20;96.50
10133;DHT22;5106;50.926;7.080;2024-03-17T06:19:03;4.20;96.50
10133;DHT22;5106;50.926;7.080;2024-03-17T06:21:28;4.20;96.50
10133;DHT22;5106;50.926;7.080;2024-03-17T06:23:54;4.20;96.50
10133;DHT22;5106;50.926;7.080;2024-03-17T06:26:19;4.10;96.50
10133;DHT22;5106;50.926;7.080;2024-03-17T06:28:46;4.10;96.50
10133;DHT22;5106;50.926;7.080;2024-03-17T06:31:11;4.20;96.50
10133;DHT22;5106;50.926;7.080;2024-03-17T06:33:37;4.20;96.50
10133;DHT22;5106;50.926;7.080;2024-03-17T06:36:04;4.30;96.50
10133;DHT22;5106;50.926;7.080;2024-03-17T06:38:30;4.30;96.50
10133;DHT22;5106;50.926;7.080;2024-03-17T06:40:56;4.30;96.50
10133;DHT22;5106;50.926;7.080;2024-03-17T06:43:22;4.40;96.50
10133;DHT22;5106;50.926;7.080;2024-03-17T06:45:57;4.40;96.50
10133;DHT22;5106;50.926;7.080;2024-03-17T06:48:24;4.50;96.50
10133;DHT22;5106;50.926;7.080;2024-03-17T06:50:50;4.50;96.50
10133;DHT22;5106;50.926;7.080;2024-03-17T06:53:26;4.60;96.50
10133;DHT22;5106;50.926;7.080;2024-03-17T06:56:00;4.70;96.50
10133;DHT22;5106;50.926;7.080;2024-03-17T06:58:27;4.80;96.50
10133;DHT22;5106;50.926;7.080;2024-03-17T07:00:59;4.90;96.50
10133;DHT22;5106;50.926;7.080;2024-03-17T07:03:26;5.00;96.50
10133;DHT22;5106;50.926;7.080;2024-03-17T07:06:10;5.10;96.50
10133;DHT22;5106;50.926;7.080;2024-03-17T07:08:35;5.20;96.50
10133;DHT22;5106;50.926;7.080;2024-03-17T07:11:04;5.30;96.50
10133;DHT22;5106;50.926;7.080;2024-03-17T07:13:31;5.30;96.50
10133;DHT22;5106;50.926;7.080;2024-03-17T07:15:58;5.40;96.50
10133;DHT22;5106;50.926;7.080;2024-03-17T07:18:30;5.50;96.50
10133;DHT22;5106;50.926;7.080;2024-03-17T07:20:57;5.50;96.50
10133;DHT22;5106;50.926;7.080;2024-03-17T07:23:24;5.70;96.50
10133;DHT22;5106;50.926;7.080;2024-03-17T07:25:54;5.80;96.50
10133;DHT22;5106;50.926;7.080;2024-03-17T07:28:19;5.90;96.50
10133;DHT22;5106;50.926;7.080;2024-03-17T07:30:49;6.00;96.50
10133;DHT22;5106;50.926;7.080;2024-03-17T07:33:15;6.10;96.50
10133;DHT22;5106;50.926;7.080;2024-03-17T07:35:54;6.30;96.50
10133;DHT22;5106;50.926;7.080;2024-03-17T07:38:22;6.40;96.50
10133;DHT22;5106;50.926;7.080;2024-03-17T07:43:24;6.70;96.50
10133;DHT22;5106;50.926;7.080;2024-03-17T07:46:07;6.90;96.50
10133;DHT22;5106;50.926;7.080;2024-03-17T07:48:34;7.10;96.50
10133;DHT22;5106;50.926;7.080;2024-03-17T07:51:05;7.20;96.50
10133;DHT22;5106;50.926;7.080;2024-03-17T07:53:32;7.40;96.50
10133;DHT22;5106;50.926;7.080;2024-03-17T07:56:11;7.50;96.50
10133;DHT22;5106;50.926;7.080;2024-03-17T07:58:39;7.70;96.50
10133;DHT22;5106;50.926;7.080;2024-03-17T08:01:06;7.80;96.50
10133;DHT22;5106;50.926;7.080;2024-03-17T08:03:33;7.90;96.50
10133;DHT22;5106;50.926;7.080;2024-03-17T08:06:01;8.10;96.50
10133;DHT22;5106;50.926;7.080;2024-03-17T08:08:27;8.20;96.50
10133;DHT22;5106;50.926;7.080;2024-03-17T08:10:53;8.30;96.50
10133;DHT22;5106;50.926;7.080;2024-03-17T08:13:20;8.50;96.50
10133;DHT22;5106;50.926;7.080;2024-03-17T08:15:54;8.60;96.50
10133;DHT22;5106;50.926;7.080;2024-03-17T08:18:20;8.70;96.50
10133;DHT22;5106;50.926;7.080;2024-03-17T08:20:46;8.80;96.50
10133;DHT22;5106;50.926;7.080;2024-03-17T08:23:15;9.00;96.50
10133;DHT22;5106;50.926;7.080;2024-03-17T08:25:40;9.10;96.50
10133;DHT22;5106;50.926;7.080;2024-03-17T08:28:06;9.30;96.50
10133;DHT22;5106;50.926;7.080;2024-03-17T08:30:35;9.40;96.50
10133;DHT22;5106;50.926;7.080;2024-03-17T08:33:02;9.50;96.50
10133;DHT22;5106;50.926;7.080;2024-03-17T08:35:27;9.60;96.50
10133;DHT22;5106;50.926;7.080;2024-03-17T08:37:53;9.70;96.50
10133;DHT22;5106;50.926;7.080;2024-03-17T08:40:22;9.70;96.50
10133;DHT22;5106;50.926;7.080;2024-03-17T08:42:48;9.70;96.50
10133;DHT22;5106;50.926;7.080;2024-03-17T08:45:14;9.80;96.50
10133;DHT22;5106;50.926;7.080;2024-03-17T08:47:39;9.80;96.50
10133;DHT22;5106;50.926;7.080;2024-03-17T08:50:05;9.90;96.50
10133;DHT22;5106;50.926;7.080;2024-03-17T08:52:34;10.00;96.50
10133;DHT22;5106;50.926;7.080;2024-03-17T08:55:00;10.20;96.50
10133;DHT22;5106;50.926;7.080;2024-03-17T08:57:28;10.30;96.50
10133;DHT22;5106;50.926;7.080;2024-03-17T08:59:53;10.30;96.50
10133;DHT22;5106;50.926;7.080;2024-03-17T09:02:19;10.40;96.50
10133;DHT22;5106;50.926;7.080;2024-03-17T09:04:46;10.50;96.50
10133;DHT22;5106;50.926;7.080;2024-03-17T09:07:12;10.40;96.50
10133;DHT22;5106;50.926;7.080;2024-03-17T09:09:41;10.40;96.50
10133;DHT22;5106;50.926;7.080;2024-03-17T09:12:08;10.30;96.50
10133;DHT22;5106;50.926;7.080;2024-03-17T09:14:33;10.30;96.50
10133;DHT22;5106;50.926;7.080;2024-03-17T09:16:59;10.40;96.50
10133;DHT22;5106;50.926;7.080;2024-03-17T09:19:25;10.50;96.50
10133;DHT22;5106;50.926;7.080;2024-03-17T09:21:50;10.50;96.50
10133;DHT22;5106;50.926;7.080;2024-03-17T09:24:16;10.60;96.50
10133;DHT22;5106;50.926;7.080;2024-03-17T09:26:41;10.80;96.50
10133;DHT22;5106;50.926;7.080;2024-03-17T09:29:07;10.90;96.50
10133;DHT22;5106;50.926;7.080;2024-03-17T09:31:33;11.00;96.50
10133;DHT22;5106;50.926;7.080;2024-03-17T09:34:03;11.00;96.50
10133;DHT22;5106;50.926;7.080;2024-03-17T09:36:30;11.10;96.50
10133;DHT22;5106;50.926;7.080;2024-03-17T09:38:56;11.20;96.50
10133;DHT22;5106;50.926;7.080;2024-03-17T09:41:24;11.20;96.50
10133;DHT22;5106;50.926;7.080;2024-03-17T09:43:55;11.20;96.50
10133;DHT22;5106;50.926;7.080;2024-03-17T09:46:26;11.20;96.50
10133;DHT22;5106;50.926;7.080;2024-03-17T09:48:53;11.30;96.50
10133;DHT22;5106;50.926;7.080;2024-03-17T09:51:26;11.30;96.50
10133;DHT22;5106;50.926;7.080;2024-03-17T09:53:52;11.40;96.50
10133;DHT22;5106;50.926;7.080;2024-03-17T09:56:19;11.40;96.50
10133;DHT22;5106;50.926;7.080;2024-03-17T09:58:49;11.50;96.50
10133;DHT22;5106;50.926;7.080;2024-03-17T10:01:16;11.70;96.50
10133;DHT22;5106;50.926;7.080;2024-03-17T10:03:51;11.80;96.50
10133;DHT22;5106;50.926;7.080;2024-03-17T10:06:23;11.90;96.50
10133;DHT22;5106;50.926;7.080;2024-03-17T10:08:54;11.90;96.50
10133;DHT22;5106;50.926;7.080;2024-03-17T10:11:21;12.00;96.50
10133;DHT22;5106;50.926;7.080;2024-03-17T10:14:02;12.10;96.50
10133;DHT22;5106;50.926;7.080;2024-03-17T10:16:29;12.30;96.50
10133;DHT22;5106;50.926;7.080;2024-03-17T10:19:12;12.40;96.50
10133;DHT22;5106;50.926;7.080;2024-03-17T10:21:39;12.50;96.50
10133;DHT22;5106;50.926;7.080;2024-03-17T10:24:10;12.60;96.50
10133;DHT22;5106;50.926;7.080;2024-03-17T10:26:40;12.70;96.50
10133;DHT22;5106;50.926;7.080;2024-03-17T10:31:54;12.80;96.50
10133;DHT22;5106;50.926;7.080;2024-03-17T10:34:22;12.80;96.50
10133;DHT22;5106;50.926;7.080;2024-03-17T10:36:51;12.80;96.50
10133;DHT22;5106;50.926;7.080;2024-03-17T10:39:25;12.80;96.50
10133;DHT22;5106;50.926;7.080;2024-03-17T10:41:59;12.90;96.50
10133;DHT22;5106;50.926;7.080;2024-03-17T10:44:27;12.90;96.50
10133;DHT22;5106;50.926;7.080;2024-03-17T10:46:55;13.00;96.50
10133;DHT22;5106;50.926;7.080;2024-03-17T10:49:27;13.10;96.50
10133;DHT22;5106;50.926;7.080;2024-03-17T10:51:57;13.20;96.50
10133;DHT22;5106;50.926;7.080;2024-03-17T10:54:24;13.30;96.50
10133;DHT22;5106;50.926;7.080;2024-03-17T10:59:41;13.40;96.50
10133;DHT22;5106;50.926;7.080;2024-03-17T11:02:24;13.40;96.50
10133;DHT22;5106;50.926;7.080;2024-03-17T11:04:55;13.50;96.50
10133;DHT22;5106;50.926;7.080;2024-03-17T11:07:21;13.50;96.50
10133;DHT22;5106;50.926;7.080;2024-03-17T11:09:49;13.50;96.50
10133;DHT22;5106;50.926;7.080;2024-03-17T11:17:46;13.70;96.50
10133;DHT22;5106;50.926;7.080;2024-03-17T11:20:15;13.70;96.50
10133;DHT22;5106;50.926;7.080;2024-03-17T11:22:44;13.70;96.50
10133;DHT22;5106;50.926;7.080;2024-03-17T11:25:39;13.70;96.50
10133;DHT22;5106;50.926;7.080;2024-03-17T11:28:08;13.80;96.50
10133;DHT22;5106;50.926;7.080;2024-03-17T11:38:51;14.50;96.50
10133;DHT22;5106;50.926;7.080;2024-03-17T11:41:37;14.70;96.50
10133;DHT22;5106;50.926;7.080;2024-03-17T11:47:04;14.90;96.50
10133;DHT22;5106;50.926;7.080;2024-03-17T11:51:58;15.10;96.50
10133;DHT22;5106;50.926;7.080;2024-03-17T11:54:35;15.10;96.50
10133;DHT22;5106;50.926;7.080;2024-03-17T11:59:38;15.10;96.50
10133;DHT22;5106;50.926;7.080;2024-03-17T12:02:23;15.10;96.50
10133;DHT22;5106;50.926;7.080;2024-03-17T12:04:56;15.00;96.50
10133;DHT22;5106;50.926;7.080;2024-03-17T12:07:22;15.00;96.50
10133;DHT22;5106;50.926;7.080;2024-03-17T12:09:50;15.00;96.50
10133;DHT22;5106;50.926;7.080;2024-03-17T12:12:27;14.90;96.50
10133;DHT22;5106;50.926;7.080;2024-03-17T12:15:02;14.90;96.50
10133;DHT22;5106;50.926;7.080;2024-03-17T12:17:28;14.90;96.50
10133;DHT22;5106;50.926;7.080;2024-03-17T12:19:54;14.90;96.50
10133;DHT22;5106;50.926;7.080;2024-03-17T12:22:24;14.90;96.50
10133;DHT22;5106;50.926;7.080;2024-03-17T12:24:55;14.80;96.50
10133;DHT22;5106;50.926;7.080;2024-03-17T12:27:26;14.80;96.50
10133;DHT22;5106;50.926;7.080;2024-03-17T12:29:55;14.80;96.50
10133;DHT22;5106;50.926;7.080;2024-03-17T12:32:22;14.80;96.50
10133;DHT22;5106;50.926;7.080;2024-03-17T12:37:21;14.80;96.50
10133;DHT22;5106;50.926;7.080;2024-03-17T12:39:47;14.80;96.50
10133;DHT22;5106;50.926;7.080;2024-03-17T12:42:15;14.80;96.50
10133;DHT22;5106;50.926;7.080;2024-03-17T12:44:51;14.80;96.50
10133;DHT22;5106;50.926;7.080;2024-03-17T12:47:19;14.80;96.50
10133;DHT22;5106;50.926;7.080;2024-03-17T12:49:49;14.80;96.50
10133;DHT22;5106;50.926;7.080;2024-03-17T12:52:27;14.70;96.50
10133;DHT22;5106;50.926;7.080;2024-03-17T12:55:07;14.70;96.50
10133;DHT22;5106;50.926;7.080;2024-03-17T12:58:11;14.70;96.50
10133;DHT22;5106;50.926;7.080;2024-03-17T13:03:29;14.70;96.50
10133;DHT22;5106;50.926;7.080;2024-03-17T13:05:57;14.70;96.50
10133;DHT22;5106;50.926;7.080;2024-03-17T13:08:22;14.70;96.50
10133;DHT22;5106;50.926;7.080;2024-03-17T13:10:48;14.70;96.50
10133;DHT22;5106;50.926;7.080;2024-03-17T13:13:15;14.60;96.50
10133;DHT22;5106;50.926;7.080;2024-03-17T13:15:42;14.60;96.50
10133;DHT22;5106;50.926;7.080;2024-03-17T13:18:07;14.60;96.50
10133;DHT22;5106;50.926;7.080;2024-03-17T13:20:34;14.50;96.50
10133;DHT22;5106;50.926;7.080;2024-03-17T13:23:00;14.50;96.50
10133;DHT22;5106;50.926;7.080;2024-03-17T13:25:27;14.50;96.50
10133;DHT22;5106;50.926;7.080;2024-03-17T13:27:55;14.50;96.50
10133;DHT22;5106;50.926;7.080;2024-03-17T13:30:23;14.50;96.50
10133;DHT22;5106;50.926;7.080;2024-03-17T13:32:52;14.50;96.50
10133;DHT22;5106;50.926;7.080;2024-03-17T14:10:22;14.20;96.50
10133;DHT22;5106;50.926;7.080;2024-03-17T14:12:47;14.20;96.50
10133;DHT22;5106;50.926;7.080;2024-03-17T14:15:14;14.20;96.50
10133;DHT22;5106;50.926;7.080;2024-03-17T14:17:42;14.20;96.50
10133;DHT22;5106;50.926;7.080;2024-03-17T14:20:08;14.20;96.50
10133;DHT22;5106;50.926;7.080;2024-03-17T14:22:37;14.20;96.50
10133;DHT22;5106;50.926;7.080;2024-03-17T14:25:06;14.20;96.50
10133;DHT22;5106;50.926;7.080;2024-03-17T14:27:32;14.20;96.50
10133;DHT22;5106;50.926;7.080;2024-03-17T14:29:59;14.20;96.50
10133;DHT22;5106;50.926;7.080;2024-03-17T14:32:24;14.30;96.50
10133;DHT22;5106;50.926;7.080;2024-03-17T14:34:50;14.20;96.50
10133;DHT22;5106;50.926;7.080;2024-03-17T14:37:15;14.30;96.50
10133;DHT22;5106;50.926;7.080;2024-03-17T14:39:41;14.30;96.50
10133;DHT22;5106;50.926;7.080;2024-03-17T14:42:07;14.40;96.50
10133;DHT22;5106;50.926;7.080;2024-03-17T14:44:34;14.50;96.50
10133;DHT22;5106;50.926;7.080;2024-03-17T14:47:01;14.60;96.50
10133;DHT22;5106;50.926;7.080;2024-03-17T14:49:28;14.60;96.50
10133;DHT22;5106;50.926;7.080;2024-03-17T14:51:53;14.70;96.50
10133;DHT22;5106;50.926;7.080;2024-03-17T14:54:19;14.80;96.50
10133;DHT22;5106;50.926;7.080;2024-03-17T14:56:45;14.80;96.50
10133;DHT22;5106;50.926;7.080;2024-03-17T14:59:11;14.90;96.50
10133;DHT22;5106;50.926;7.080;2024-03-17T15:01:37;15.00;96.50
10133;DHT22;5106;50.926;7.080;2024-03-17T15:04:03;15.10;96.50
10133;DHT22;5106;50.926;7.080;2024-03-17T15:06:28;15.30;96.50
10133;DHT22;5106;50.926;7.080;2024-03-17T15:08:54;15.50;96.50
10133;DHT22;5106;50.926;7.080;2024-03-17T15:11:19;15.70;96.50
10133;DHT22;5106;50.926;7.080;2024-03-17T15:13:45;16.00;96.50
10133;DHT22;5106;50.926;7.080;2024-03-17T15:16:11;16.30;96.50
10133;DHT22;5106;50.926;7.080;2024-03-17T15:18:37;16.50;96.50
10133;DHT22;5106;50.926;7.080;2024-03-17T15:21:03;16.90;96.50
10133;DHT22;5106;50.926;7.080;2024-03-17T15:23:32;17.10;96.50
10133;DHT22;5106;50.926;7.080;2024-03-17T15:26:04;17.20;96.50
10133;DHT22;5106;50.926;7.080;2024-03-17T15:28:39;17.40;96.50
10133;DHT22;5106;50.926;7.080;2024-03-17T15:31:05;17.40;96.50
10133;DHT22;5106;50.926;7.080;2024-03-17T15:33:32;17.60;96.50
10133;DHT22;5106;50.926;7.080;2024-03-17T15:36:01;17.90;96.50
10133;DHT22;5106;50.926;7.080;2024-03-17T15:38:27;18.20;96.50
10133;DHT22;5106;50.926;7.080;2024-03-17T15:40:53;18.30;96.50
10133;DHT22;5106;50.926;7.080;2024-03-17T15:43:18;18.20;96.50
10133;DHT22;5106;50.926;7.080;2024-03-17T15:45:44;17.90;96.50
10133;DHT22;5106;50.926;7.080;2024-03-17T15:48:09;17.60;96.50
10133;DHT22;5106;50.926;7.080;2024-03-17T15:50:35;17.10;96.50
10133;DHT22;5106;50.926;7.080;2024-03-17T15:53:01;16.60;96.50
10133;DHT22;5106;50.926;7.080;2024-03-17T15:55:26;16.30;96.50
10133;DHT22;5106;50.926;7.080;2024-03-17T15:57:52;16.00;96.50
10133;DHT22;5106;50.926;7.080;2024-03-17T16:00:18;15.80;96.50
10133;DHT22;5106;50.926;7.080;2024-03-17T16:02:47;15.70;96.50
10133;DHT22;5106;50.926;7.080;2024-03-17T16:05:15;15.60;96.50
10133;DHT22;5106;50.926;7.080;2024-03-17T16:07:41;15.50;96.50
10133;DHT22;5106;50.926;7.080;2024-03-17T16:10:10;15.50;96.50
10133;DHT22;5106;50.926;7.080;2024-03-17T16:12:36;15.40;96.50
10133;DHT22;5106;50.926;7.080;2024-03-17T16:15:02;15.40;96.50
10133;DHT22;5106;50.926;7.080;2024-03-17T16:17:29;15.40;96.50
10133;DHT22;5106;50.926;7.080;2024-03-17T16:19:56;15.50;96.50
10133;DHT22;5106;50.926;7.080;2024-03-17T16:22:24;15.70;96.50
10133;DHT22;5106;50.926;7.080;2024-03-17T16:24:50;16.10;96.50
10133;DHT22;5106;50.926;7.080;2024-03-17T16:27:15;16.50;96.50
10133;DHT22;5106;50.926;7.080;2024-03-17T16:29:41;16.70;96.50
10133;DHT22;5106;50.926;7.080;2024-03-17T16:32:09;16.80;96.50
10133;DHT22;5106;50.926;7.080;2024-03-17T16:34:36;16.70;96.50
10133;DHT22;5106;50.926;7.080;2024-03-17T16:37:02;16.60;96.50
10133;DHT22;5106;50.926;7.080;2024-03-17T16:39:28;16.30;96.50
10133;DHT22;5106;50.926;7.080;2024-03-17T16:41:56;16.10;96.50
10133;DHT22;5106;50.926;7.080;2024-03-17T16:47:16;15.70;96.50
10133;DHT22;5106;50.926;7.080;2024-03-17T16:49:44;15.40;96.50
10133;DHT22;5106;50.926;7.080;2024-03-17T16:52:09;15.20;96.50
10133;DHT22;5106;50.926;7.080;2024-03-17T16:54:36;15.00;96.50
10133;DHT22;5106;50.926;7.080;2024-03-17T16:57:04;14.90;96.50
10133;DHT22;5106;50.926;7.080;2024-03-17T16:59:29;14.80;96.50
10133;DHT22;5106;50.926;7.080;2024-03-17T17:01:55;14.60;96.50
10133;DHT22;5106;50.926;7.080;2024-03-17T17:04:20;14.50;96.50
10133;DHT22;5106;50.926;7.080;2024-03-17T17:06:56;14.40;96.50
10133;DHT22;5106;50.926;7.080;2024-03-17T17:09:22;14.40;96.50
10133;DHT22;5106;50.926;7.080;2024-03-17T17:11:50;14.30;96.50